createdAt,value
2019-03-05T00:01:14.907Z,6.80
2019-03-05T00:06:18.691Z,6.80
2019-03-05T00:11:22.360Z,6.80
2019-03-05T00:16:26.050Z,6.80
2019-03-05T00:21:29.724Z,6.70
2019-03-05T00:26:35.340Z,6.70
2019-03-05T00:31:39.357Z,6.70
2019-03-05T00:36:56.403Z,6.70
2019-03-05T00:42:46.479Z,6.70
2019-03-05T00:48:00.985Z,6.70
2019-03-05T00:53:23.560Z,6.70
2019-03-05T00:58:41.205Z,6.70
2019-03-05T01:03:55.168Z,6.70
2019-03-05T01:08:59.491Z,6.80
2019-03-05T01:14:03.999Z,6.80
2019-03-05T01:19:07.746Z,6.80
2019-03-05T01:24:11.501Z,6.80
2019-03-05T01:29:15.166Z,6.80
2019-03-05T01:34:23.719Z,6.80
2019-03-05T01:39:32.915Z,6.90
2019-03-05T01:44:36.609Z,6.90
2019-03-05T01:49:40.280Z,6.90
2019-03-05T01:54:43.964Z,6.90
2019-03-05T01:59:47.875Z,6.90
2019-03-05T02:04:51.559Z,7.00
2019-03-05T02:09:55.248Z,7.00
2019-03-05T02:14:58.928Z,7.00
2019-03-05T02:20:02.603Z,7.10
2019-03-05T02:25:22.060Z,7.10
2019-03-05T02:31:08.584Z,7.10
2019-03-05T02:36:18.551Z,7.10
2019-03-05T02:41:56.157Z,7.10
2019-03-05T02:47:10.754Z,7.10
2019-03-05T02:52:42.928Z,7.10
2019-03-05T02:57:45.351Z,7.10
2019-03-05T03:03:11.627Z,7.10
2019-03-05T03:08:15.301Z,7.10
2019-03-05T03:13:18.998Z,7.00
2019-03-05T03:18:22.670Z,7.00
2019-03-05T03:23:26.345Z,7.00
2019-03-05T03:28:30.028Z,7.00
2019-03-05T03:33:33.716Z,7.00
2019-03-05T03:38:37.444Z,7.00
2019-03-05T03:43:41.107Z,7.00
2019-03-05T03:48:44.789Z,7.00
2019-03-05T03:53:48.448Z,6.90
2019-03-05T03:58:52.191Z,6.90
2019-03-05T04:03:55.929Z,6.90
2019-03-05T04:08:59.613Z,6.90
2019-03-05T04:14:03.307Z,6.90
2019-03-05T04:19:10.999Z,6.90
2019-03-05T04:24:14.680Z,6.90
2019-03-05T04:29:19.194Z,6.80
2019-03-05T04:34:22.961Z,6.80
2019-03-05T04:39:26.638Z,6.80
2019-03-05T04:44:43.965Z,6.80
2019-03-05T04:50:15.873Z,6.80
2019-03-05T04:55:19.539Z,6.80
2019-03-05T05:00:23.694Z,6.80
2019-03-05T05:05:27.367Z,6.90
2019-03-05T05:10:31.109Z,6.90
2019-03-05T05:15:35.063Z,6.90
2019-03-05T05:20:38.733Z,6.90
2019-03-05T05:25:42.406Z,6.90
2019-03-05T05:30:46.068Z,6.90
2019-03-05T05:35:49.741Z,7.00
2019-03-05T05:40:53.426Z,7.00
2019-03-05T05:45:57.181Z,6.90
2019-03-05T05:51:00.875Z,6.90
2019-03-05T05:56:04.556Z,6.90
2019-03-05T06:01:11.224Z,6.90
2019-03-05T06:06:15.225Z,6.90
2019-03-05T06:11:18.884Z,6.90
2019-03-05T06:16:22.657Z,6.80
2019-03-05T06:21:26.337Z,6.80
2019-03-05T06:26:30.077Z,6.80
2019-03-05T06:31:33.746Z,6.80
2019-03-05T06:36:51.467Z,6.80
2019-03-05T06:41:55.169Z,6.80
2019-03-05T06:46:58.960Z,6.80
2019-03-05T06:52:02.776Z,6.80
2019-03-05T06:57:06.442Z,6.80
2019-03-05T07:02:10.170Z,6.80
2019-03-05T07:07:13.841Z,6.80
2019-03-05T07:12:27.464Z,6.80
2019-03-05T07:17:52.279Z,6.90
2019-03-05T07:23:11.500Z,6.90
2019-03-05T07:28:15.511Z,6.90
2019-03-05T07:33:19.284Z,6.90
2019-03-05T07:38:23.173Z,6.90
2019-03-05T07:43:36.704Z,7.00
2019-03-05T07:48:40.659Z,7.00
2019-03-05T07:53:44.340Z,7.00
2019-03-05T07:58:48.018Z,7.00
2019-03-05T08:03:51.696Z,7.10
2019-03-05T08:09:28.947Z,7.10
2019-03-05T08:14:51.344Z,7.10
2019-03-05T08:19:55.347Z,7.10
2019-03-05T08:24:59.076Z,7.20
2019-03-05T08:30:13.720Z,7.20
2019-03-05T08:35:09.522Z,7.20
2019-03-05T08:40:13.525Z,7.20
2019-03-05T08:45:28.473Z,7.20
2019-03-05T08:50:23.219Z,7.20
2019-03-05T08:55:26.888Z,7.10
2019-03-05T09:00:30.575Z,7.10
2019-03-05T09:05:34.332Z,7.00
2019-03-05T09:10:38.194Z,6.90
2019-03-05T09:15:41.958Z,6.80
2019-03-05T09:20:45.648Z,6.70
2019-03-05T09:25:49.474Z,6.70
2019-03-05T09:30:53.158Z,6.70
2019-03-05T09:35:56.930Z,6.80
2019-03-05T09:41:00.625Z,6.80
2019-03-05T09:46:04.495Z,6.80
2019-03-05T09:51:08.535Z,6.70
2019-03-05T09:56:12.293Z,6.70
2019-03-05T10:01:16.078Z,6.80
2019-03-05T10:06:20.030Z,6.90
2019-03-05T10:11:24.302Z,7.00
2019-03-05T10:16:28.218Z,7.10
2019-03-05T10:21:31.913Z,7.20
2019-03-05T10:26:35.700Z,7.30
2019-03-05T10:31:39.763Z,7.40
2019-03-05T10:36:43.449Z,7.50
2019-03-05T10:41:47.195Z,7.50
2019-03-05T10:46:51.133Z,7.50
2019-03-05T10:51:54.832Z,7.50
2019-03-05T10:56:58.572Z,7.60
2019-03-05T11:02:02.406Z,7.60
2019-03-05T11:07:06.220Z,7.60
2019-03-05T11:12:10.030Z,7.60
2019-03-05T11:17:13.834Z,7.60
2019-03-05T11:22:17.536Z,7.60
2019-03-05T11:27:21.272Z,7.60
2019-03-05T11:32:24.953Z,7.60
2019-03-05T11:37:28.717Z,7.60
2019-03-05T11:42:32.478Z,7.70
2019-03-05T11:47:36.211Z,7.70
2019-03-05T11:52:39.953Z,7.80
2019-03-05T11:57:43.823Z,7.90
2019-03-05T12:02:47.707Z,8.00
2019-03-05T12:07:51.499Z,8.10
2019-03-05T12:12:55.761Z,8.20
2019-03-05T12:17:59.584Z,8.30
2019-03-05T12:23:06.713Z,8.30
2019-03-05T12:28:10.596Z,8.40
2019-03-05T12:33:14.569Z,8.50
2019-03-05T12:38:18.290Z,8.60
2019-03-05T12:43:21.961Z,8.60
2019-03-05T12:48:25.637Z,8.60
2019-03-05T12:53:29.392Z,8.50
2019-03-05T12:58:33.058Z,8.60
2019-03-05T13:03:36.720Z,8.60
2019-03-05T13:08:40.540Z,8.60
2019-03-05T13:13:47.533Z,8.60
2019-03-05T13:18:49.640Z,8.60
2019-03-05T13:23:53.630Z,8.60
2019-03-05T13:28:57.294Z,8.70
2019-03-05T13:34:01.295Z,8.60
2019-03-05T13:39:06.348Z,8.60
2019-03-05T13:44:32.225Z,8.60
2019-03-05T13:50:04.554Z,8.60
2019-03-05T13:55:26.940Z,8.60
2019-03-05T14:00:29.112Z,8.60
2019-03-05T14:06:12.406Z,8.70
2019-03-05T14:11:16.087Z,8.70
2019-03-05T14:16:20.652Z,8.70
2019-03-05T14:21:24.346Z,8.80
2019-03-05T14:26:28.064Z,8.70
2019-03-05T14:31:31.895Z,8.80
2019-03-05T14:36:40.163Z,8.80
2019-03-05T14:41:43.966Z,8.80
2019-03-05T14:46:52.766Z,8.80
2019-03-05T14:51:56.549Z,8.80
2019-03-05T14:57:00.292Z,8.80
2019-03-05T15:02:04.135Z,8.80
2019-03-05T15:07:07.902Z,8.90
2019-03-05T15:12:11.636Z,8.80
2019-03-05T15:17:15.402Z,8.80
2019-03-05T15:22:19.123Z,8.70
2019-03-05T15:27:22.813Z,8.50
2019-03-05T15:32:26.568Z,8.20
2019-03-05T15:37:31.493Z,8.00
2019-03-05T15:42:35.332Z,7.90
2019-03-05T15:47:42.577Z,7.70
2019-03-05T15:52:44.435Z,7.70
2019-03-05T15:57:48.180Z,7.60
2019-03-05T16:02:51.922Z,7.60
2019-03-05T16:07:55.862Z,7.60
2019-03-05T16:12:59.564Z,7.50
2019-03-05T16:18:05.287Z,7.50
2019-03-05T16:23:08.788Z,7.50
2019-03-05T16:28:12.559Z,7.40
2019-03-05T16:33:32.398Z,7.40
2019-03-05T16:38:57.046Z,7.30
2019-03-05T16:44:11.119Z,7.30
2019-03-05T16:49:24.269Z,7.20
2019-03-05T16:54:53.281Z,7.10
2019-03-05T17:00:03.372Z,7.10
2019-03-05T17:05:43.902Z,7.00
2019-03-05T17:11:05.588Z,6.90
2019-03-05T17:16:09.730Z,6.90
2019-03-05T17:21:13.810Z,6.80
2019-03-05T17:26:17.581Z,6.70
2019-03-05T17:31:21.722Z,6.70
2019-03-05T17:36:25.418Z,6.60
2019-03-05T17:41:29.371Z,6.50
2019-03-05T17:46:33.056Z,6.50
2019-03-05T17:51:36.948Z,6.40
2019-03-05T17:56:40.648Z,6.40
2019-03-05T18:01:44.739Z,6.30
2019-03-05T18:06:48.447Z,6.30
2019-03-05T18:11:52.497Z,6.20
2019-03-05T18:16:56.463Z,6.20
2019-03-05T18:22:00.583Z,6.10
2019-03-05T18:27:04.441Z,6.00
2019-03-05T18:32:08.711Z,6.00
2019-03-05T18:37:32.010Z,5.90
2019-03-05T18:42:35.755Z,5.90
2019-03-05T18:47:39.427Z,5.80
2019-03-05T18:52:43.167Z,5.70
2019-03-05T18:57:46.937Z,5.70
2019-03-05T19:02:52.095Z,5.60
2019-03-05T19:07:56.269Z,5.50
2019-03-05T19:13:01.478Z,5.50
2019-03-05T19:18:06.197Z,5.40
2019-03-05T19:23:10.016Z,5.40
2019-03-05T19:28:13.933Z,5.30
2019-03-05T19:33:18.024Z,5.30
2019-03-05T19:38:21.972Z,5.20
2019-03-05T19:43:26.207Z,5.20
2019-03-05T19:48:30.392Z,5.10
2019-03-05T19:53:34.564Z,5.10
2019-03-05T19:58:38.707Z,5.00
2019-03-05T20:03:45.965Z,5.00
2019-03-05T20:08:50.047Z,5.00
2019-03-05T20:13:54.554Z,4.90
2019-03-05T20:18:59.027Z,4.90
2019-03-05T20:24:03.477Z,4.90
2019-03-05T20:29:07.729Z,4.80
2019-03-05T20:34:11.931Z,4.80
2019-03-05T20:39:17.112Z,4.70
2019-03-05T20:44:21.268Z,4.70
2019-03-05T20:49:25.422Z,4.70
2019-03-05T20:54:29.167Z,4.70
2019-03-05T20:59:32.838Z,4.70
2019-03-05T21:04:36.913Z,4.60
2019-03-05T21:09:40.642Z,4.60
2019-03-05T21:14:46.642Z,4.60
2019-03-05T21:19:59.824Z,4.60
2019-03-05T21:25:03.726Z,4.60
2019-03-05T21:30:14.155Z,4.60
2019-03-05T21:35:25.402Z,4.60
2019-03-05T21:40:29.525Z,4.60
2019-03-05T21:45:35.659Z,4.60
2019-03-05T21:50:39.697Z,4.60
2019-03-05T21:55:43.426Z,4.50
2019-03-05T22:00:47.378Z,4.50
2019-03-05T22:05:51.055Z,4.50
2019-03-05T22:10:55.402Z,4.50
2019-03-05T22:15:59.164Z,4.50
2019-03-05T22:21:03.168Z,4.50
2019-03-05T22:26:06.921Z,4.50
2019-03-05T22:31:10.956Z,4.50
2019-03-05T22:36:14.628Z,4.40
2019-03-05T22:41:18.654Z,4.40
2019-03-05T22:46:22.329Z,4.40
2019-03-05T22:51:26.072Z,4.40
2019-03-05T22:56:29.740Z,4.40
2019-03-05T23:01:37.487Z,4.30
2019-03-05T23:06:42.374Z,4.30
2019-03-05T23:11:46.036Z,4.30
2019-03-05T23:16:49.788Z,4.30
2019-03-05T23:21:53.466Z,4.30
2019-03-05T23:26:57.141Z,4.30
2019-03-05T23:32:00.808Z,4.20
2019-03-05T23:37:05.310Z,4.20
2019-03-05T23:42:09.044Z,4.20
2019-03-05T23:47:14.040Z,4.10
2019-03-05T23:52:17.816Z,4.10
2019-03-05T23:57:21.490Z,4.00
